Time;durP1;ratioP1;P1;durP2;ratioP2;P2;SDS_P1;SDS_P2;PMS_P1;PMS_P2;Temp;Humidity;BMP_temperature;BMP_pressure;BME280_temperature;BME280_humidity;BME280_pressure;Samples;Min_cycle;Max_cycle;Signal;HPM_P1;HPM_P2
2023/01/07 00:00:51;;;;;;;9.32;6.20;;;;;;;15.91;55.88;97574.75;5034390;28;20029;-26
2023/01/07 00:03:17;;;;;;;8.80;6.30;;;;;;;15.78;55.78;97565.75;5033557;28;20381;-25
2023/01/07 00:05:43;;;;;;;8.25;5.68;;;;;;;15.63;56.80;97562.63;5047088;28;20158;-26
2023/01/07 00:08:09;;;;;;;9.00;5.85;;;;;;;15.66;56.49;97566.47;5044909;28;20104;-26
2023/01/07 00:10:35;;;;;;;10.93;6.80;;;;;;;15.77;56.35;97572.41;5045729;28;20044;-26
2023/01/07 00:13:01;;;;;;;8.98;5.90;;;;;;;15.72;56.39;97560.00;5038114;28;20057;-26
2023/01/07 00:15:28;;;;;;;7.30;5.80;;;;;;;15.86;55.94;97558.84;5040850;28;20167;-26
2023/01/07 00:17:53;;;;;;;8.90;6.10;;;;;;;15.87;56.00;97560.41;5048509;28;20028;-27
2023/01/07 00:20:19;;;;;;;8.65;5.75;;;;;;;15.72;56.39;97551.03;5052876;28;20035;-26
2023/01/07 00:22:44;;;;;;;8.07;5.50;;;;;;;15.67;56.65;97551.59;5037591;28;20021;-26
2023/01/07 00:25:10;;;;;;;7.32;5.00;;;;;;;15.67;56.64;97559.78;5040377;28;20361;-26
2023/01/07 00:27:35;;;;;;;7.47;5.28;;;;;;;15.74;56.31;97562.31;5033377;28;20374;-26
2023/01/07 00:30:01;;;;;;;9.63;6.25;;;;;;;15.85;56.17;97567.50;5039345;28;20055;-26
2023/01/07 00:32:50;;;;;;;7.57;5.57;;;;;;;15.87;55.91;97565.88;5034326;28;20483;-26
2023/01/07 00:35:22;;;;;;;9.02;6.07;;;;;;;15.69;56.55;97565.59;5045330;28;20389;-26
2023/01/07 00:37:52;;;;;;;9.10;5.90;;;;;;;15.80;56.21;97564.09;5039086;28;20037;-26
2023/01/07 00:40:17;;;;;;;7.55;5.38;;;;;;;15.86;55.97;97558.84;5038814;28;20029;-26
2023/01/07 00:43:03;;;;;;;7.63;5.35;;;;;;;15.89;55.92;97557.22;5037878;28;20465;-26
2023/01/07 00:45:35;;;;;;;7.22;5.40;;;;;;;15.76;56.25;97548.97;5033996;28;20033;-26
2023/01/07 00:48:02;;;;;;;7.63;5.25;;;;;;;15.84;56.11;97549.53;5042539;28;20036;-26
2023/01/07 00:50:30;;;;;;;8.20;5.30;;;;;;;15.74;56.38;97556.84;5043573;28;20025;-26
2023/01/07 00:52:56;;;;;;;6.57;4.47;;;;;;;15.75;56.41;97558.38;5044552;28;20033;-26
2023/01/07 00:55:23;;;;;;;9.90;5.93;;;;;;;15.76;56.36;97557.97;5026504;28;20032;-27
2023/01/07 00:57:49;;;;;;;6.93;5.22;;;;;;;15.71;56.51;97554.97;5041222;28;20112;-26
2023/01/07 01:00:17;;;;;;;8.00;5.38;;;;;;;15.85;55.98;97556.53;5047374;28;20025;-25
2023/01/07 01:02:42;;;;;;;7.65;5.18;;;;;;;15.79;56.40;97556.34;5046316;28;20021;-26
2023/01/07 01:05:09;;;;;;;7.85;4.88;;;;;;;15.80;56.16;97553.16;5035573;28;20457;-26
2023/01/07 01:07:35;;;;;;;6.35;4.88;;;;;;;15.74;56.31;97556.84;5037160;28;20033;-26
2023/01/07 01:10:01;;;;;;;7.50;4.97;;;;;;;15.77;56.25;97559.50;5034261;28;20068;-26
2023/01/07 01:12:27;;;;;;;7.88;5.10;;;;;;;15.73;56.41;97558.81;5024773;28;20067;-26
2023/01/07 01:14:53;;;;;;;6.85;4.68;;;;;;;15.73;56.40;97555.31;5067955;28;20033;-26
2023/01/07 01:17:20;;;;;;;7.82;5.20;;;;;;;15.87;55.93;97548.69;5069748;28;20024;-26
2023/01/07 01:19:46;;;;;;;7.18;4.95;;;;;;;15.76;56.60;97555.22;5073884;28;20032;-27
2023/01/07 01:22:11;;;;;;;7.30;5.13;;;;;;;15.85;56.04;97560.06;5069200;28;20025;-26
2023/01/07 01:24:37;;;;;;;7.85;5.00;;;;;;;15.88;55.89;97551.00;5064605;28;20038;-26
2023/01/07 01:27:03;;;;;;;7.28;5.05;;;;;;;15.84;56.09;97550.31;5073035;28;20107;-26
2023/01/07 01:29:28;;;;;;;8.88;4.80;;;;;;;15.81;56.06;97553.94;5073470;28;20035;-26
2023/01/07 01:31:54;;;;;;;6.97;5.13;;;;;;;15.82;56.22;97557.44;5073779;28;20032;-26
2023/01/07 01:34:19;;;;;;;7.22;4.45;;;;;;;15.80;56.10;97560.59;5067417;28;20442;-26
2023/01/07 01:36:45;;;;;;;8.65;4.78;;;;;;;15.79;56.25;97559.06;5053686;28;20025;-26
2023/01/07 01:39:10;;;;;;;6.40;4.38;;;;;;;15.79;55.96;97561.81;5072921;28;20020;-27
2023/01/07 01:41:36;;;;;;;6.68;4.22;;;;;;;15.77;56.19;97558.72;5073499;28;20024;-25
2023/01/07 01:44:27;;;;;;;6.85;4.63;;;;;;;15.77;56.33;97558.72;5053519;28;20017;-25
2023/01/07 01:46:53;;;;;;;7.90;5.50;;;;;;;15.76;56.20;97555.22;5056742;28;20029;-26
2023/01/07 01:49:25;;;;;;;8.38;5.35;;;;;;;15.71;56.42;97554.97;5073397;28;20027;-26
2023/01/07 01:52:05;;;;;;;6.80;5.40;;;;;;;15.73;56.32;97556.09;5060066;28;20031;-25
2023/01/07 01:54:32;;;;;;;6.32;4.85;;;;;;;15.62;56.64;97560.31;5061916;28;20074;-26
2023/01/07 01:57:00;;;;;;;7.68;4.95;;;;;;;15.78;56.26;97552.81;5057965;28;20352;-26
2023/01/07 01:59:31;;;;;;;6.60;4.72;;;;;;;15.74;56.25;97557.63;5061375;28;20035;-25
2023/01/07 02:01:56;;;;;;;6.93;4.88;;;;;;;15.64;56.54;97549.72;5066618;28;20032;-26
2023/01/07 02:04:24;;;;;;;7.60;4.80;;;;;;;15.76;56.20;97554.47;5053228;28;20021;-26
2023/01/07 02:06:58;;;;;;;7.28;4.97;;;;;;;15.87;56.11;97554.91;5053360;28;20079;-25
2023/01/07 02:09:23;;;;;;;6.70;4.82;;;;;;;15.78;56.26;97552.81;5066374;28;20113;-25
2023/01/07 02:12:28;;;;;;;8.63;5.20;;;;;;;15.56;56.81;97551.13;5058953;28;20024;-28
2023/01/07 02:15:10;;;;;;;6.97;5.00;;;;;;;15.78;56.33;97552.81;5047857;28;20029;-26
2023/01/07 02:17:53;;;;;;;9.45;5.15;;;;;;;15.79;56.09;97554.38;5047417;28;20025;-25
2023/01/07 02:20:57;;;;;;;8.00;4.82;;;;;;;15.76;56.21;97544.28;5043328;28;20025;-26
2023/01/07 02:23:40;;;;;;;6.88;5.00;;;;;;;15.73;56.39;97552.56;5023723;28;20127;-26
2023/01/07 02:26:27;;;;;;;8.63;5.15;;;;;;;15.89;55.97;97549.78;5039456;28;20074;-26
2023/01/07 02:29:01;;;;;;;6.78;4.97;;;;;;;15.90;55.86;97547.81;5052911;28;20082;-25
2023/01/07 02:32:02;;;;;;;7.32;5.18;;;;;;;15.76;56.32;97548.97;5044766;28;20021;-26
2023/01/07 02:34:52;;;;;;;8.32;5.00;;;;;;;15.74;56.33;97548.66;5034825;28;20112;-26
2023/01/07 02:37:27;;;;;;;9.05;5.20;;;;;;;15.71;56.49;97541.31;5050601;28;20485;-26
2023/01/07 02:40:37;;;;;;;8.35;5.10;;;;;;;15.71;56.45;97541.31;5039462;28;20044;-26
2023/01/07 02:43:15;;;;;;;6.85;5.00;;;;;;;15.67;56.49;97535.19;5017203;28;20170;-26
2023/01/07 02:45:47;;;;;;;7.15;5.07;;;;;;;15.79;56.22;97542.66;5042109;28;20112;-25
2023/01/07 02:48:15;;;;;;;7.70;5.45;;;;;;;15.75;56.31;97539.25;5056654;28;20122;-26
2023/01/07 02:50:40;;;;;;;5.82;4.65;;;;;;;15.90;55.81;97543.13;5050203;28;20513;-26
2023/01/07 02:53:09;;;;;;;7.25;5.00;;;;;;;15.73;56.27;97538.91;5049686;28;20025;-26
2023/01/07 02:55:47;;;;;;;8.05;5.00;;;;;;;15.75;56.35;97528.31;5036716;28;20017;-26
2023/01/07 02:58:31;;;;;;;7.78;5.03;;;;;;;15.79;56.15;97526.25;5049188;28;20021;-25
2023/01/07 03:01:24;;;;;;;7.22;4.70;;;;;;;15.74;56.34;97529.50;5045413;28;20036;-26
2023/01/07 03:04:11;;;;;;;7.63;5.18;;;;;;;15.71;56.35;97524.88;5035992;28;20525;-25
2023/01/07 03:06:59;;;;;;;9.05;5.13;;;;;;;15.79;56.16;97529.75;5036591;28;20036;-25
2023/01/07 03:09:46;;;;;;;9.45;5.28;;;;;;;15.74;56.21;97524.81;5049822;28;20020;-25
2023/01/07 03:12:27;;;;;;;7.07;4.75;;;;;;;15.64;56.48;97523.13;5043426;28;20049;-26
2023/01/07 03:15:07;;;;;;;8.48;5.07;;;;;;;15.74;56.34;97518.56;5042670;28;20029;-28
2023/01/07 03:31:01;;;;;;;6.80;4.63;;;;;;;15.71;56.44;97503.00;5053659;28;20087;-25
2023/01/07 03:34:04;;;;;;;6.30;4.45;;;;;;;15.74;56.28;97511.13;5044596;28;20026;-25
2023/01/07 03:36:40;;;;;;;6.22;4.88;;;;;;;15.80;56.19;97506.66;5045543;28;20044;-26
2023/01/07 03:39:09;;;;;;;8.15;4.95;;;;;;;15.76;56.23;97507.97;5042474;28;20484;-25
2023/01/07 03:44:19;;;;;;;7.65;4.97;;;;;;;15.66;56.58;97514.50;5043179;28;20427;-26
2023/01/07 03:46:44;;;;;;;6.57;5.03;;;;;;;15.71;56.46;97513.94;5041638;28;20021;-26
2023/01/07 03:49:10;;;;;;;7.68;4.68;;;;;;;15.59;56.60;97511.94;5043195;28;20487;-25
2023/01/07 03:51:35;;;;;;;7.75;5.07;;;;;;;15.81;56.09;97512.91;5036790;28;20477;-27
2023/01/07 03:54:00;;;;;;;7.90;5.38;;;;;;;15.73;56.23;97511.56;5035666;28;20366;-25
2023/01/07 03:56:26;;;;;;;8.80;5.10;;;;;;;15.75;56.19;97517.38;5030927;28;20025;-25
2023/01/07 03:58:51;;;;;;;7.30;5.15;;;;;;;15.79;56.08;97510.59;5035851;28;20053;-26
2023/01/07 04:01:17;;;;;;;7.53;5.07;;;;;;;15.74;56.15;97513.84;5035540;28;20033;-25
2023/01/07 04:03:42;;;;;;;7.45;5.35;;;;;;;15.78;56.19;97519.25;5035460;28;20025;-26
2023/01/07 04:06:08;;;;;;;9.30;5.43;;;;;;;15.78;55.84;97514.53;5049018;28;20370;-28
2023/01/07 04:08:35;;;;;;;7.28;4.75;;;;;;;15.78;56.04;97514.53;5055053;28;20017;-25
2023/01/07 04:11:01;;;;;;;7.03;5.15;;;;;;;15.62;56.65;97516.56;5041948;28;20453;-25
2023/01/07 04:13:26;;;;;;;6.97;5.00;;;;;;;15.61;56.58;97513.06;5048182;28;20121;-26
2023/01/07 04:15:52;;;;;;;9.98;5.50;;;;;;;15.72;56.51;97515.50;5048825;28;20432;-26
2023/01/07 04:18:17;;;;;;;7.30;5.03;;;;;;;15.74;56.19;97513.09;5041643;28;20111;-26
2023/01/07 04:20:47;;;;;;;8.88;4.47;;;;;;;15.90;55.81;97512.25;5023622;28;20044;-25
2023/01/07 04:23:13;;;;;;;7.53;4.97;;;;;;;15.78;56.26;97514.53;5042412;28;20024;-26
2023/01/07 04:25:40;;;;;;;6.70;4.65;;;;;;;15.85;55.88;97512.78;5054423;28;20378;-26
2023/01/07 04:28:05;;;;;;;7.43;4.93;;;;;;;15.81;56.02;97518.38;5047510;28;20029;-25
2023/01/07 04:30:32;;;;;;;6.68;4.63;;;;;;;15.83;55.86;97510.47;5035673;28;20021;-26
2023/01/07 04:32:57;;;;;;;9.23;5.50;;;;;;;15.82;56.01;97516.41;5047307;28;20025;-26
2023/01/07 04:35:23;;;;;;;7.78;5.25;;;;;;;15.76;56.12;97510.69;5035295;28;20032;-25
2023/01/07 04:37:49;;;;;;;7.03;5.35;;;;;;;15.79;56.08;97507.09;5054582;28;20031;-26
2023/01/07 04:40:15;;;;;;;7.90;4.60;;;;;;;15.73;56.30;97508.81;5041200;28;20033;-26
2023/01/07 04:42:40;;;;;;;8.00;4.95;;;;;;;15.79;56.06;97512.56;5035082;28;20428;-26
2023/01/07 04:45:07;;;;;;;8.02;4.65;;;;;;;15.74;56.13;97502.91;5036989;28;20108;-26
2023/01/07 04:47:32;;;;;;;5.70;4.55;;;;;;;15.88;55.88;97507.22;5054166;28;20150;-26
2023/01/07 04:49:57;;;;;;;8.32;4.75;;;;;;;15.88;55.80;97509.19;5054255;28;20100;-26
2023/01/07 04:52:23;;;;;;;7.38;5.15;;;;;;;15.82;56.15;97513.69;5054225;28;20024;-26
2023/01/07 04:54:48;;;;;;;5.55;4.53;;;;;;;15.82;56.06;97510.94;5054003;28;20487;-26
2023/01/07 04:57:14;;;;;;;6.78;5.13;;;;;;;15.88;55.52;97509.94;5033558;28;20048;-26
2023/01/07 04:59:39;;;;;;;7.63;4.80;;;;;;;15.76;56.22;97499.75;5047875;28;20020;-26
2023/01/07 05:02:05;;;;;;;8.00;5.10;;;;;;;15.74;56.23;97502.91;5046951;28;20030;-26
2023/01/07 05:04:30;;;;;;;8.38;5.32;;;;;;;15.72;56.23;97490.88;5034579;28;20033;-25
2023/01/07 05:06:56;;;;;;;7.65;4.45;;;;;;;15.85;55.96;97502.59;5047219;28;20488;-26
2023/01/07 05:09:21;;;;;;;7.38;4.95;;;;;;;15.78;56.06;97491.88;5034598;28;20026;-26
2023/01/07 05:11:47;;;;;;;6.82;5.18;;;;;;;15.87;55.77;97492.00;5054060;28;20044;-26
2023/01/07 05:14:12;;;;;;;8.27;4.70;;;;;;;15.83;55.98;97499.53;5053783;28;20033;-26
2023/01/07 05:16:37;;;;;;;8.52;5.10;;;;;;;15.77;56.10;97504.78;5047079;28;20017;-26
2023/01/07 05:19:03;;;;;;;7.15;4.60;;;;;;;15.80;56.27;97501.19;5034816;28;20029;-25
2023/01/07 05:21:29;;;;;;;6.72;4.90;;;;;;;15.77;56.06;97504.78;5040548;28;20048;-26
2023/01/07 05:23:54;;;;;;;7.18;5.03;;;;;;;15.80;55.98;97503.94;5040900;28;20021;-25
2023/01/07 05:26:20;;;;;;;6.78;4.78;;;;;;;15.85;55.80;97507.31;5034004;28;20021;-26
2023/01/07 05:28:46;;;;;;;6.47;5.03;;;;;;;15.90;55.69;97502.09;5046813;28;20082;-26
2023/01/07 05:31:11;;;;;;;7.60;4.65;;;;;;;15.92;55.67;97515.34;5034199;28;20013;-25
2023/01/07 05:33:36;;;;;;;6.72;4.75;;;;;;;15.84;55.98;97514.75;5046400;28;20382;-26
2023/01/07 05:36:02;;;;;;;6.38;4.93;;;;;;;15.83;56.15;97510.47;5047482;28;20457;-26
2023/01/07 05:38:28;;;;;;;8.32;5.15;;;;;;;15.85;55.84;97519.03;5028492;28;20023;-26
2023/01/07 05:40:53;;;;;;;9.20;5.05;;;;;;;15.79;55.89;97516.06;5053655;28;20033;-26
2023/01/07 05:43:20;;;;;;;8.23;5.13;;;;;;;15.82;55.74;97509.72;5053103;28;20023;-26
2023/01/07 05:45:45;;;;;;;7.38;5.05;;;;;;;15.83;55.96;97507.75;5040159;28;20381;-26
2023/01/07 05:48:12;;;;;;;6.80;5.07;;;;;;;15.84;55.84;97508.50;5040882;28;20031;-26
2023/01/07 05:50:37;;;;;;;6.40;5.07;;;;;;;15.85;55.83;97510.03;5039219;28;20108;-26
2023/01/07 05:53:03;;;;;;;7.57;5.13;;;;;;;15.87;55.65;97521.31;5053568;28;20104;-25
2023/01/07 05:55:28;;;;;;;9.02;5.70;;;;;;;15.89;55.62;97519.69;5034359;28;20075;-26
2023/01/07 05:57:54;;;;;;;7.82;5.00;;;;;;;15.88;55.84;97525.59;5046002;28;20079;-26
2023/01/07 06:00:19;;;;;;;7.47;4.97;;;;;;;15.87;55.75;97511.16;5052824;28;20428;-26
2023/01/07 06:02:45;;;;;;;9.15;5.97;;;;;;;15.80;55.90;97527.78;5053224;28;20354;-28
2023/01/07 06:05:10;;;;;;;7.15;4.88;;;;;;;15.93;55.65;97530.53;5053233;28;20392;-26
2023/01/07 06:07:36;;;;;;;8.25;5.43;;;;;;;15.87;55.84;97526.81;5053194;28;20036;-26
2023/01/07 06:10:02;;;;;;;7.60;5.28;;;;;;;15.92;55.75;97526.28;5047838;28;20029;-26
2023/01/07 06:12:27;;;;;;;9.23;6.25;;;;;;;15.89;55.68;97524.41;5033122;28;20056;-26
2023/01/07 06:14:53;;;;;;;9.27;5.65;;;;;;;15.82;55.78;97521.88;5033821;28;20090;-26
2023/01/07 06:17:18;;;;;;;8.15;5.20;;;;;;;15.85;56.02;97529.97;5053386;28;20063;-28
2023/01/07 06:19:44;;;;;;;8.70;5.47;;;;;;;15.82;55.84;97527.34;5048407;28;20441;-26
2023/01/07 06:22:09;;;;;;;9.02;5.40;;;;;;;15.82;55.82;97528.84;5044479;28;20049;-25
2023/01/07 06:24:41;;;;;;;8.90;5.55;;;;;;;15.89;55.70;97529.88;5039691;28;20021;-26
2023/01/07 06:27:08;;;;;;;6.65;5.22;;;;;;;15.87;55.61;97530.31;5040883;28;20152;-25
2023/01/07 06:29:33;;;;;;;8.35;5.70;;;;;;;15.78;55.92;97536.41;5046532;28;20385;-25
2023/01/07 06:31:59;;;;;;;8.88;5.72;;;;;;;15.82;55.98;97531.59;5032926;28;20022;-26
2023/01/07 06:34:24;;;;;;;8.63;6.10;;;;;;;15.89;55.63;97536.13;5046288;28;20096;-26
2023/01/07 06:36:49;;;;;;;7.40;5.72;;;;;;;15.87;55.72;97533.03;5045291;28;20428;-25
2023/01/07 06:39:15;;;;;;;7.97;5.28;;;;;;;15.87;55.71;97532.28;5033840;28;20477;-25
2023/01/07 06:41:40;;;;;;;7.38;5.15;;;;;;;15.90;55.48;97540.38;5032972;28;20040;-25
2023/01/07 06:44:06;;;;;;;9.30;5.15;;;;;;;15.85;55.57;97538.16;5051728;28;20049;-26
2023/01/07 06:46:31;;;;;;;9.20;5.60;;;;;;;15.80;55.72;97544.19;5046456;28;20025;-26
2023/01/07 06:48:57;;;;;;;9.20;5.43;;;;;;;15.87;55.72;97535.78;5051168;28;20485;-25
2023/01/07 06:51:22;;;;;;;8.68;5.85;;;;;;;15.86;55.78;97539.72;5052538;28;20071;-26
2023/01/07 06:53:57;;;;;;;8.38;5.15;;;;;;;15.80;55.87;97539.50;5034754;28;20095;-25
2023/01/07 06:56:22;;;;;;;6.85;5.07;;;;;;;15.74;55.85;97541.22;5032939;28;20021;-26
2023/01/07 06:58:48;;;;;;;7.63;5.45;;;;;;;15.91;55.45;97547.38;5052431;28;20032;-26
2023/01/07 07:01:14;;;;;;;8.25;5.63;;;;;;;15.85;55.66;97540.91;5039477;28;20079;-26
2023/01/07 07:03:39;;;;;;;9.45;5.57;;;;;;;15.88;55.59;97536.53;5032748;28;20445;-26
2023/01/07 07:06:05;;;;;;;8.80;5.47;;;;;;;15.76;55.74;97535.31;5032680;28;20087;-26
2023/01/07 07:08:32;;;;;;;7.68;5.57;;;;;;;15.75;55.92;97544.72;5052230;28;20057;-25
2023/01/07 07:10:57;;;;;;;7.25;5.28;;;;;;;15.81;55.75;97540.25;5039719;28;20060;-25
2023/01/07 07:13:23;;;;;;;6.88;5.15;;;;;;;15.83;55.75;97546.03;5045788;28;20070;-26
2023/01/07 07:15:48;;;;;;;6.72;5.60;;;;;;;15.86;55.50;97542.44;5036251;28;20144;-26
2023/01/07 07:18:15;;;;;;;8.55;5.80;;;;;;;15.89;55.60;97546.28;5032755;28;20507;-26
2023/01/07 07:20:40;;;;;;;6.72;5.53;;;;;;;15.88;55.45;97534.56;5047757;28;20116;-26
2023/01/07 07:23:06;;;;;;;8.07;5.47;;;;;;;15.87;55.72;97535.00;5056039;28;20104;-26
2023/01/07 07:25:33;;;;;;;11.30;5.38;;;;;;;15.86;55.52;97544.41;5042495;28;20140;-25
2023/01/07 07:27:58;;;;;;;7.50;5.50;;;;;;;15.81;55.78;97545.72;5049225;28;20105;-25
2023/01/07 07:30:23;;;;;;;8.90;6.15;;;;;;;15.75;55.95;97544.72;5049236;28;20056;-26
2023/01/07 07:32:49;;;;;;;8.38;5.57;;;;;;;15.82;55.84;97536.31;5036245;28;20476;-25
2023/01/07 07:35:14;;;;;;;9.18;5.95;;;;;;;15.91;55.46;97544.66;5049379;28;20021;-26
2023/01/07 07:37:40;;;;;;;9.10;6.07;;;;;;;15.86;55.73;97545.19;5055941;28;20108;-25
2023/01/07 07:40:07;;;;;;;7.93;5.82;;;;;;;15.80;55.77;97544.19;5055790;28;20036;-26
2023/01/07 07:42:33;;;;;;;7.88;5.90;;;;;;;15.80;55.86;97538.72;5036004;28;20066;-26
2023/01/07 07:44:59;;;;;;;9.55;6.28;;;;;;;15.86;55.75;97539.72;5035914;28;20380;-26
2023/01/07 07:47:24;;;;;;;8.82;6.22;;;;;;;15.82;55.70;97535.56;5042473;28;20078;-26
2023/01/07 07:49:50;;;;;;;11.23;6.10;;;;;;;15.84;55.74;97533.91;5055399;28;20028;-26
2023/01/07 08:06:16;;;;;;;7.80;5.82;;;;;;;15.86;55.75;97547.91;5035077;28;20036;-25
2023/01/07 08:08:42;;;;;;;9.57;6.20;;;;;;;15.79;56.05;97545.38;5034993;28;20204;-26
2023/01/07 08:11:07;;;;;;;9.15;6.35;;;;;;;15.75;55.98;97548.22;5035015;28;20128;-26
2023/01/07 08:13:33;;;;;;;10.25;7.03;;;;;;;15.73;55.92;97544.38;5043373;28;20374;-26
2023/01/07 08:15:58;;;;;;;11.20;6.55;;;;;;;15.79;55.80;97548.13;5035605;28;20469;-26
2023/01/07 08:18:24;;;;;;;8.93;6.22;;;;;;;15.75;55.96;97548.22;5043406;28;20075;-26
2023/01/07 08:20:49;;;;;;;9.45;6.05;;;;;;;15.72;56.08;97553.78;5040529;28;20028;-26
2023/01/07 08:23:15;;;;;;;9.57;6.70;;;;;;;15.80;55.97;97549.66;5043412;28;20013;-26
2023/01/07 08:25:41;;;;;;;8.90;6.28;;;;;;;15.83;55.94;97551.50;5040022;28;20033;-26
2023/01/07 08:28:06;;;;;;;9.35;5.93;;;;;;;15.78;55.90;97552.81;5035304;28;20026;-26
2023/01/07 08:30:32;;;;;;;8.95;5.90;;;;;;;15.72;56.08;97553.78;5036499;28;20022;-25
2023/01/07 08:32:59;;;;;;;8.65;6.18;;;;;;;15.77;56.04;97556.00;5054848;28;20071;-26
2023/01/07 08:35:24;;;;;;;9.73;6.72;;;;;;;15.87;55.81;97557.66;5039437;28;20485;-26
2023/01/07 08:37:50;;;;;;;8.32;6.40;;;;;;;15.81;55.87;97562.13;5044331;28;20025;-26
2023/01/07 08:40:15;;;;;;;9.55;6.50;;;;;;;15.84;55.91;97555.00;5039769;28;20075;-26
2023/01/07 08:42:41;;;;;;;8.25;5.88;;;;;;;15.81;56.09;97562.13;5043113;28;20020;-26
2023/01/07 08:45:08;;;;;;;9.75;5.93;;;;;;;15.88;55.85;97561.94;5054532;28;20488;-26
2023/01/07 08:47:33;;;;;;;7.90;6.18;;;;;;;15.86;55.90;97558.84;5054573;28;20024;-26
2023/01/07 08:49:59;;;;;;;7.97;6.45;;;;;;;15.86;55.93;97558.84;5052800;28;20047;-26
2023/01/07 08:52:25;;;;;;;8.32;6.03;;;;;;;15.90;55.72;97565.00;5016908;28;20053;-25
2023/01/07 08:54:50;;;;;;;8.38;6.13;;;;;;;15.93;55.77;97566.13;5039220;28;20033;-26
2023/01/07 08:57:17;;;;;;;8.05;6.28;;;;;;;15.91;55.68;97571.25;5039811;28;20057;-27
2023/01/07 08:59:43;;;;;;;8.82;6.30;;;;;;;15.85;55.94;97567.50;5038674;28;20029;-26
2023/01/07 09:02:16;;;;;;;9.32;6.22;;;;;;;15.84;56.04;97574.94;5051965;28;20056;-27
2023/01/07 09:04:42;;;;;;;9.38;6.03;;;;;;;15.78;56.21;97573.94;5037199;28;20556;-26
2023/01/07 09:07:08;;;;;;;8.90;6.22;;;;;;;15.85;55.84;97572.97;5036950;28;20107;-26
2023/01/07 09:09:35;;;;;;;8.63;6.38;;;;;;;15.86;55.85;97579.97;5030499;28;20384;-25
2023/01/07 09:12:00;;;;;;;8.68;5.80;;;;;;;15.89;55.86;97574.41;5039256;28;20467;-26
2023/01/07 09:14:26;;;;;;;7.97;6.20;;;;;;;15.92;55.78;97576.28;5038301;28;20120;-26
2023/01/07 09:16:51;;;;;;;9.88;6.20;;;;;;;15.89;55.84;97574.41;5031185;28;20053;-25
2023/01/07 09:19:17;;;;;;;8.93;6.68;;;;;;;15.74;56.41;97574.03;5050624;28;20029;-26
2023/01/07 09:21:42;;;;;;;9.07;6.15;;;;;;;15.84;55.93;97583.13;5038503;28;20094;-25
2023/01/07 09:24:08;;;;;;;9.40;6.38;;;;;;;15.73;56.40;97574.47;5038297;28;20028;-26
2023/01/07 09:26:33;;;;;;;8.73;6.45;;;;;;;15.80;56.17;97575.06;5038581;28;20033;-26
2023/01/07 09:28:59;;;;;;;8.73;6.38;;;;;;;15.86;56.13;97579.97;5038583;28;20025;-26
2023/01/07 09:31:24;;;;;;;8.80;6.10;;;;;;;15.85;56.15;97581.94;5038058;28;20104;-26
2023/01/07 09:33:50;;;;;;;10.75;7.57;;;;;;;15.75;56.32;97583.78;5050452;28;20035;-26
2023/01/07 09:36:15;;;;;;;10.45;6.72;;;;;;;15.76;56.37;97579.06;5032517;28;20045;-26
2023/01/07 09:38:41;;;;;;;9.88;6.63;;;;;;;15.82;56.34;97576.59;5031308;28;20091;-25
2023/01/07 09:41:30;;;;;;;10.07;6.47;;;;;;;15.71;56.70;97585.06;5031386;28;20034;-26
2023/01/07 09:44:06;;;;;;;9.75;6.47;;;;;;;15.76;56.55;97576.34;5043030;28;20056;-26
2023/01/07 09:46:32;;;;;;;8.95;6.50;;;;;;;15.74;56.57;97573.25;5031809;28;20021;-26
2023/01/07 09:49:01;;;;;;;10.55;7.03;;;;;;;15.70;56.71;97580.81;5031052;28;20025;-25
2023/01/07 09:51:40;;;;;;;10.40;6.18;;;;;;;15.71;56.80;97576.84;5013957;28;20424;-26
2023/01/07 09:54:34;;;;;;;9.77;6.43;;;;;;;15.77;56.62;97575.13;5031055;28;20076;-26
2023/01/07 09:57:00;;;;;;;9.40;6.57;;;;;;;15.78;56.55;97573.94;5031477;28;20026;-26
2023/01/07 09:59:26;;;;;;;10.52;6.57;;;;;;;15.85;56.35;97573.72;5031494;28;20034;-26
2023/01/07 10:02:15;;;;;;;10.55;6.57;;;;;;;15.82;56.46;97577.34;5035218;28;20033;-26
2023/01/07 10:05:01;;;;;;;8.43;6.28;;;;;;;15.84;56.27;97566.72;5018536;28;20017;-26
2023/01/07 10:07:32;;;;;;;8.93;6.30;;;;;;;15.79;56.53;97559.06;5049253;28;20029;-26
2023/01/07 10:10:08;;;;;;;8.40;5.93;;;;;;;15.84;56.46;97571.44;5038564;28;20061;-26
2023/01/07 10:12:39;;;;;;;8.85;6.30;;;;;;;15.80;56.59;97561.38;5037603;28;20052;-26
2023/01/07 10:15:30;;;;;;;9.45;6.45;;;;;;;15.68;57.01;97553.13;5039889;28;20036;-25
2023/01/07 10:18:14;;;;;;;8.80;6.13;;;;;;;15.78;56.80;97560.25;4986124;28;20404;-26
2023/01/07 10:20:57;;;;;;;9.68;6.03;;;;;;;15.74;56.86;97554.88;5033925;28;20021;-26
2023/01/07 10:23:27;;;;;;;8.88;6.80;;;;;;;15.78;56.66;97549.31;5031219;28;20028;-26
2023/01/07 10:25:58;;;;;;;10.27;6.55;;;;;;;15.83;56.60;97554.25;5020297;28;20116;-25
2023/01/07 10:28:31;;;;;;;10.23;6.53;;;;;;;15.88;56.29;97545.53;5036686;28;20055;-25
2023/01/07 10:30:59;;;;;;;8.60;5.93;;;;;;;15.85;56.48;97546.38;5030983;28;20033;-26
2023/01/07 10:33:30;;;;;;;8.60;6.18;;;;;;;15.85;56.49;97549.13;5044109;28;20071;-26
2023/01/07 10:36:05;;;;;;;10.55;6.57;;;;;;;15.86;56.40;97542.44;5037215;28;20162;-25
2023/01/07 10:38:35;;;;;;;8.73;6.75;;;;;;;15.82;56.57;97541.03;5031257;28;20021;-26
2023/01/07 10:57:49;;;;;;;9.43;5.88;;;;;;;15.74;57.04;97527.53;5046249;28;20074;-26
2023/01/07 11:00:17;;;;;;;7.63;6.20;;;;;;;15.78;56.83;97530.94;5031002;28;20052;-26
2023/01/07 11:02:51;;;;;;;8.88;5.68;;;;;;;15.66;57.23;97522.72;5046545;28;20021;-27
2023/01/07 11:05:20;;;;;;;8.43;6.07;;;;;;;15.73;57.02;97522.50;5054490;28;20021;-26
2023/01/07 11:07:51;;;;;;;9.43;6.53;;;;;;;15.79;57.08;97523.50;5037062;28;20075;-26
2023/01/07 11:10:29;;;;;;;8.35;6.05;;;;;;;15.73;57.02;97519.75;5041166;28;20037;-26
2023/01/07 11:12:57;;;;;;;8.20;5.88;;;;;;;15.70;57.21;97515.19;5051604;28;20492;-27
2023/01/07 11:15:34;;;;;;;9.45;6.20;;;;;;;15.71;57.05;97520.19;5043854;28;20029;-26
2023/01/07 11:18:52;;;;;;;9.52;6.50;;;;;;;15.77;56.96;97517.69;5040879;28;20449;-26
2023/01/07 11:21:34;;;;;;;9.52;6.13;;;;;;;15.79;56.88;97515.31;5015611;28;20037;-25
2023/01/07 11:24:00;;;;;;;9.63;6.13;;;;;;;15.76;57.00;97510.69;5034198;28;20032;-25
2023/01/07 11:26:30;;;;;;;7.30;5.70;;;;;;;15.78;57.10;97502.81;5034375;28;20508;-26
2023/01/07 11:28:55;;;;;;;9.15;6.32;;;;;;;15.78;57.06;97502.81;5016349;28;20167;-26
2023/01/07 11:31:41;;;;;;;7.85;6.00;;;;;;;15.72;57.24;97510.78;5042055;28;20099;-26
2023/01/07 11:34:17;;;;;;;9.23;6.10;;;;;;;15.80;57.11;97501.19;5032028;28;20080;-26
2023/01/07 11:36:43;;;;;;;8.07;5.93;;;;;;;15.86;56.74;97498.69;5034103;28;20036;-26
2023/01/07 11:39:17;;;;;;;9.68;6.38;;;;;;;15.79;57.20;97496.16;5047223;28;20030;-27
2023/01/07 11:42:37;;;;;;;9.23;6.40;;;;;;;15.77;57.10;97488.38;5046944;28;20119;-26
2023/01/07 11:44:45;;;;;;;7.47;6.20;;;;;;;15.82;57.05;97491.78;5033756;28;20029;-27
2023/01/07 11:47:16;;;;;;;8.48;6.07;;;;;;;15.78;57.11;97495.38;5039081;28;20036;-26
2023/01/07 11:49:44;;;;;;;10.27;6.15;;;;;;;15.74;57.33;97486.50;5053816;28;20089;-26
2023/01/07 11:52:18;;;;;;;7.65;5.63;;;;;;;15.80;56.90;97486.75;5033908;28;20025;-26
2023/01/07 11:54:49;;;;;;;8.18;6.35;;;;;;;15.80;57.10;97481.28;5034010;28;20036;-26
2023/01/07 11:57:24;;;;;;;8.77;6.32;;;;;;;15.83;56.90;97477.66;5033291;28;20057;-26
2023/01/07 12:00:14;;;;;;;11.43;6.93;;;;;;;15.80;56.95;97484.78;5045983;28;20032;-26
2023/01/07 12:02:39;;;;;;;9.75;6.53;;;;;;;15.82;57.02;97479.63;5044577;28;20056;-27
2023/01/07 12:05:18;;;;;;;9.35;6.35;;;;;;;15.84;57.06;97475.69;5053248;28;20045;-26
2023/01/07 12:07:46;;;;;;;10.23;6.47;;;;;;;15.87;56.78;97472.84;5039418;28;20092;-26
2023/01/07 12:10:24;;;;;;;9.65;7.18;;;;;;;15.77;57.26;97471.22;5031870;28;20022;-25
2023/01/07 12:12:50;;;;;;;10.70;6.70;;;;;;;15.78;57.19;97465.31;5033146;28;20056;-26
2023/01/07 12:15:27;;;;;;;10.00;7.25;;;;;;;15.80;56.97;97462.13;5033400;28;20108;-26
2023/01/07 12:18:34;;;;;;;10.30;6.82;;;;;;;15.61;57.73;97458.38;5036526;28;20023;-27
2023/01/07 12:21:18;;;;;;;12.68;7.40;;;;;;;15.78;57.08;97459.84;5025822;28;20474;-26
2023/01/07 12:23:53;;;;;;;10.15;6.93;;;;;;;15.71;57.37;97464.72;5053158;28;20478;-26
2023/01/07 12:26:28;;;;;;;8.43;6.80;;;;;;;15.73;57.27;97454.88;5033551;28;20025;-26
2023/01/07 12:29:23;;;;;;;10.63;7.20;;;;;;;15.76;57.09;97454.03;5045540;28;20029;-25
2023/01/07 12:32:12;;;;;;;9.70;6.50;;;;;;;15.76;57.19;97445.81;5024392;28;20040;-28